Estación Meteorológica Peña el Pijo (Robertgarden) [ 09/23/18 02:44:19 CEST ]

Fecha Hora Presion(HPa) Temp (°C) Humedad % Rocio (°C) Viento ( m/s) Direccion Lluvia 1Hora(mm) Lluvia 24H(mm) LLuvia Total(mm)
2018-Jul-18 01:01:46 1011.100 15.6 55 6.6         269.36
2018-Jul-18 02:01:30 1011.100 14.6 59 6.7         269.36
2018-Jul-18 03:01:36 1010.500 14.1 61 6.7         269.36
2018-Jul-18 04:01:34 1010.100 13.3 64 6.6         269.36
2018-Jul-18 05:01:37 1010.100 13.0 66 6.8         269.36
2018-Jul-18 06:01:33 1010.100 12.8 65 6.4         269.36
2018-Jul-18 07:01:40 1010.300 11.8 67 5.8         269.36
2018-Jul-18 08:01:49 1010.400 12.5 68 6.8         269.36
2018-Jul-18 09:01:52 1010.600 18.1 60 10.2         269.36
2018-Jul-18 10:01:48 1011.000 24.8 42 11.0         269.36
2018-Jul-18 11:01:43 1010.800 29.2 33 11.2         269.36
2018-Jul-18 12:01:52 1011.000 30.8 28 10.0         269.36
2018-Jul-18 13:01:56 1010.500 33.5 24 9.9         269.36
2018-Jul-18 14:02:01 1009.900 34.1 23 9.8         269.36
2018-Jul-18 15:01:51 1009.400 35.6 20 9.2         269.36
2018-Jul-18 16:01:38 1009.400 36.3 23 11.7         269.36
2018-Jul-18 17:01:41 1009.100 36.3 20 9.8 2.0 SSW     269.36
2018-Jul-18 18:01:48 1009.100 36.1 23 11.5         269.36
2018-Jul-18 19:01:42 1009.000 34.1 25 11.0         269.36
2018-Jul-18 20:01:47 1009.300 33.1 26 10.8         269.36
2018-Jul-18 21:01:39 1009.800 27.1 40 12.4         269.36
2018-Jul-18 22:01:52 1010.400 23.5 48 11.8         269.36
2018-Jul-18 23:01:51 1011.100 19.6 55 10.3         269.36

Temperatura Máxima:36°    Temperatura Mínima:11°
Presión Máxima:1011.100 Hpa    Presión Mínima:1009.000 Hpa


Volver